sensor_id;sensor_type;location;lat;lon;timestamp;P1;durP1;ratioP1;P2;durP2;ratioP2
483;SDS011;228;48.922;12.198;2022-10-16T00:01:59;5.40;;;4.70;;
483;SDS011;228;48.922;12.198;2022-10-16T00:04:25;5.37;;;4.73;;
483;SDS011;228;48.922;12.198;2022-10-16T00:06:51;5.13;;;4.30;;
483;SDS011;228;48.922;12.198;2022-10-16T00:09:17;5.80;;;4.77;;
483;SDS011;228;48.922;12.198;2022-10-16T00:11:43;9.20;;;4.60;;
483;SDS011;228;48.922;12.198;2022-10-16T00:14:11;6.17;;;4.07;;
483;SDS011;228;48.922;12.198;2022-10-16T00:16:40;4.90;;;4.40;;
483;SDS011;228;48.922;12.198;2022-10-16T00:19:07;4.50;;;4.03;;
483;SDS011;228;48.922;12.198;2022-10-16T00:21:34;5.23;;;4.43;;
483;SDS011;228;48.922;12.198;2022-10-16T00:24:19;4.53;;;3.87;;
483;SDS011;228;48.922;12.198;2022-10-16T00:26:45;4.30;;;3.87;;
483;SDS011;228;48.922;12.198;2022-10-16T00:29:16;5.93;;;3.67;;
483;SDS011;228;48.922;12.198;2022-10-16T00:31:42;4.30;;;3.90;;
483;SDS011;228;48.922;12.198;2022-10-16T00:34:08;3.40;;;3.10;;
483;SDS011;228;48.922;12.198;2022-10-16T00:36:34;3.73;;;3.30;;
483;SDS011;228;48.922;12.198;2022-10-16T00:39:00;3.27;;;2.93;;
483;SDS011;228;48.922;12.198;2022-10-16T00:41:27;4.37;;;3.37;;
483;SDS011;228;48.922;12.198;2022-10-16T00:43:55;4.07;;;3.67;;
483;SDS011;228;48.922;12.198;2022-10-16T00:46:25;3.93;;;3.53;;
483;SDS011;228;48.922;12.198;2022-10-16T00:49:16;3.30;;;3.00;;
483;SDS011;228;48.922;12.198;2022-10-16T00:51:45;5.33;;;3.20;;
483;SDS011;228;48.922;12.198;2022-10-16T00:54:26;6.23;;;3.60;;
483;SDS011;228;48.922;12.198;2022-10-16T00:56:55;3.90;;;3.50;;
483;SDS011;228;48.922;12.198;2022-10-16T00:59:30;4.37;;;3.23;;
483;SDS011;228;48.922;12.198;2022-10-16T01:02:02;3.80;;;3.00;;
483;SDS011;228;48.922;12.198;2022-10-16T01:04:39;4.10;;;3.47;;
483;SDS011;228;48.922;12.198;2022-10-16T01:10:17;3.97;;;3.17;;
483;SDS011;228;48.922;12.198;2022-10-16T01:13:01;3.60;;;2.90;;
483;SDS011;228;48.922;12.198;2022-10-16T01:21:16;3.73;;;3.03;;
483;SDS011;228;48.922;12.198;2022-10-16T01:24:06;4.13;;;3.50;;
483;SDS011;228;48.922;12.198;2022-10-16T01:27:07;3.80;;;3.33;;
483;SDS011;228;48.922;12.198;2022-10-16T01:32:55;3.87;;;2.87;;
483;SDS011;228;48.922;12.198;2022-10-16T01:35:35;3.20;;;2.90;;
483;SDS011;228;48.922;12.198;2022-10-16T01:38:25;5.50;;;2.93;;
483;SDS011;228;48.922;12.198;2022-10-16T01:41:00;3.30;;;3.00;;
483;SDS011;228;48.922;12.198;2022-10-16T01:43:36;3.40;;;3.10;;
483;SDS011;228;48.922;12.198;2022-10-16T01:46:06;4.60;;;3.07;;
483;SDS011;228;48.922;12.198;2022-10-16T01:48:34;3.20;;;2.90;;
483;SDS011;228;48.922;12.198;2022-10-16T01:51:06;3.17;;;2.87;;
483;SDS011;228;48.922;12.198;2022-10-16T01:53:36;3.67;;;2.83;;
483;SDS011;228;48.922;12.198;2022-10-16T01:56:04;3.03;;;2.73;;
483;SDS011;228;48.922;12.198;2022-10-16T01:58:36;3.50;;;2.77;;
483;SDS011;228;48.922;12.198;2022-10-16T02:01:10;2.90;;;2.70;;
483;SDS011;228;48.922;12.198;2022-10-16T02:03:40;3.00;;;2.70;;
483;SDS011;228;48.922;12.198;2022-10-16T02:06:10;3.37;;;2.60;;
483;SDS011;228;48.922;12.198;2022-10-16T02:08:37;3.00;;;2.70;;
483;SDS011;228;48.922;12.198;2022-10-16T02:11:05;4.23;;;2.77;;
483;SDS011;228;48.922;12.198;2022-10-16T02:13:33;3.60;;;2.90;;
483;SDS011;228;48.922;12.198;2022-10-16T02:16:01;3.23;;;2.83;;
483;SDS011;228;48.922;12.198;2022-10-16T02:18:27;3.07;;;2.37;;
483;SDS011;228;48.922;12.198;2022-10-16T02:21:04;3.87;;;2.80;;
483;SDS011;228;48.922;12.198;2022-10-16T02:23:45;5.80;;;2.73;;
483;SDS011;228;48.922;12.198;2022-10-16T02:29:33;3.00;;;2.80;;
483;SDS011;228;48.922;12.198;2022-10-16T02:32:15;3.67;;;3.00;;
483;SDS011;228;48.922;12.198;2022-10-16T02:34:47;5.33;;;3.30;;
483;SDS011;228;48.922;12.198;2022-10-16T02:37:15;3.67;;;3.37;;
483;SDS011;228;48.922;12.198;2022-10-16T02:39:43;3.70;;;3.37;;
483;SDS011;228;48.922;12.198;2022-10-16T02:42:13;3.10;;;2.80;;
483;SDS011;228;48.922;12.198;2022-10-16T02:44:40;3.60;;;3.00;;
483;SDS011;228;48.922;12.198;2022-10-16T02:47:06;3.37;;;3.07;;
483;SDS011;228;48.922;12.198;2022-10-16T02:49:32;3.50;;;2.90;;
483;SDS011;228;48.922;12.198;2022-10-16T02:51:58;3.33;;;3.00;;
483;SDS011;228;48.922;12.198;2022-10-16T02:54:24;3.03;;;2.73;;
483;SDS011;228;48.922;12.198;2022-10-16T02:56:50;3.40;;;3.10;;
483;SDS011;228;48.922;12.198;2022-10-16T02:59:17;2.90;;;2.63;;
483;SDS011;228;48.922;12.198;2022-10-16T03:01:43;3.20;;;2.90;;
483;SDS011;228;48.922;12.198;2022-10-16T03:04:09;3.20;;;2.70;;
483;SDS011;228;48.922;12.198;2022-10-16T03:06:35;3.17;;;2.87;;
483;SDS011;228;48.922;12.198;2022-10-16T03:09:02;3.07;;;2.77;;
483;SDS011;228;48.922;12.198;2022-10-16T03:11:28;4.17;;;3.17;;
483;SDS011;228;48.922;12.198;2022-10-16T03:13:54;4.40;;;3.20;;
483;SDS011;228;48.922;12.198;2022-10-16T03:16:20;3.50;;;3.20;;
483;SDS011;228;48.922;12.198;2022-10-16T03:18:49;3.90;;;3.00;;
483;SDS011;228;48.922;12.198;2022-10-16T03:21:15;4.20;;;2.93;;
483;SDS011;228;48.922;12.198;2022-10-16T03:23:42;6.70;;;3.10;;
483;SDS011;228;48.922;12.198;2022-10-16T03:26:08;3.47;;;3.17;;
483;SDS011;228;48.922;12.198;2022-10-16T03:28:34;3.20;;;2.90;;
483;SDS011;228;48.922;12.198;2022-10-16T03:31:00;2.83;;;2.63;;
483;SDS011;228;48.922;12.198;2022-10-16T03:33:26;3.37;;;3.07;;
483;SDS011;228;48.922;12.198;2022-10-16T03:35:52;3.00;;;2.70;;
483;SDS011;228;48.922;12.198;2022-10-16T03:38:20;3.53;;;3.23;;
483;SDS011;228;48.922;12.198;2022-10-16T03:40:46;4.33;;;3.10;;
483;SDS011;228;48.922;12.198;2022-10-16T03:43:13;4.53;;;2.90;;
483;SDS011;228;48.922;12.198;2022-10-16T03:45:39;3.03;;;2.77;;
483;SDS011;228;48.922;12.198;2022-10-16T03:48:05;2.80;;;2.60;;
483;SDS011;228;48.922;12.198;2022-10-16T03:50:31;3.20;;;2.90;;
483;SDS011;228;48.922;12.198;2022-10-16T03:52:57;3.10;;;2.70;;
483;SDS011;228;48.922;12.198;2022-10-16T03:55:23;3.60;;;2.93;;
483;SDS011;228;48.922;12.198;2022-10-16T03:57:49;4.93;;;3.00;;
483;SDS011;228;48.922;12.198;2022-10-16T04:00:15;3.03;;;2.83;;
483;SDS011;228;48.922;12.198;2022-10-16T04:02:42;3.60;;;3.30;;
483;SDS011;228;48.922;12.198;2022-10-16T04:05:08;4.00;;;3.13;;
483;SDS011;228;48.922;12.198;2022-10-16T04:07:34;4.63;;;3.70;;
483;SDS011;228;48.922;12.198;2022-10-16T04:10:00;4.00;;;3.50;;
483;SDS011;228;48.922;12.198;2022-10-16T04:12:26;6.10;;;4.03;;
483;SDS011;228;48.922;12.198;2022-10-16T04:14:52;5.80;;;3.97;;
483;SDS011;228;48.922;12.198;2022-10-16T04:17:18;4.80;;;4.13;;
483;SDS011;228;48.922;12.198;2022-10-16T04:19:44;4.60;;;4.20;;
483;SDS011;228;48.922;12.198;2022-10-16T04:22:11;5.07;;;4.57;;
483;SDS011;228;48.922;12.198;2022-10-16T04:24:37;5.33;;;4.73;;
483;SDS011;228;48.922;12.198;2022-10-16T04:27:03;4.30;;;3.90;;
483;SDS011;228;48.922;12.198;2022-10-16T04:29:29;6.27;;;4.20;;
483;SDS011;228;48.922;12.198;2022-10-16T04:31:55;4.80;;;4.00;;
483;SDS011;228;48.922;12.198;2022-10-16T04:34:21;5.87;;;4.20;;
483;SDS011;228;48.922;12.198;2022-10-16T04:36:47;4.00;;;3.60;;
483;SDS011;228;48.922;12.198;2022-10-16T04:39:14;3.87;;;3.53;;
483;SDS011;228;48.922;12.198;2022-10-16T04:41:41;3.80;;;2.93;;
483;SDS011;228;48.922;12.198;2022-10-16T04:44:07;3.53;;;3.23;;
483;SDS011;228;48.922;12.198;2022-10-16T04:46:33;4.57;;;3.40;;
483;SDS011;228;48.922;12.198;2022-10-16T04:48:59;3.40;;;3.10;;
483;SDS011;228;48.922;12.198;2022-10-16T04:51:26;5.47;;;3.03;;
483;SDS011;228;48.922;12.198;2022-10-16T04:53:53;3.57;;;2.80;;
483;SDS011;228;48.922;12.198;2022-10-16T04:56:20;4.27;;;3.60;;
483;SDS011;228;48.922;12.198;2022-10-16T04:58:47;4.10;;;3.40;;
483;SDS011;228;48.922;12.198;2022-10-16T05:01:13;2.80;;;2.60;;
483;SDS011;228;48.922;12.198;2022-10-16T05:03:39;2.90;;;2.70;;
483;SDS011;228;48.922;12.198;2022-10-16T05:06:05;3.40;;;3.10;;
483;SDS011;228;48.922;12.198;2022-10-16T05:08:32;2.87;;;2.67;;
483;SDS011;228;48.922;12.198;2022-10-16T05:10:58;4.10;;;2.90;;
483;SDS011;228;48.922;12.198;2022-10-16T05:13:24;4.17;;;2.63;;
483;SDS011;228;48.922;12.198;2022-10-16T05:15:50;2.60;;;2.40;;
483;SDS011;228;48.922;12.198;2022-10-16T05:18:17;3.00;;;2.70;;
483;SDS011;228;48.922;12.198;2022-10-16T05:20:43;2.57;;;2.37;;
483;SDS011;228;48.922;12.198;2022-10-16T05:23:09;3.47;;;3.00;;
483;SDS011;228;48.922;12.198;2022-10-16T05:25:35;2.93;;;2.63;;
483;SDS011;228;48.922;12.198;2022-10-16T05:28:02;5.20;;;3.10;;
483;SDS011;228;48.922;12.198;2022-10-16T05:30:28;4.10;;;3.63;;
483;SDS011;228;48.922;12.198;2022-10-16T05:32:54;3.83;;;3.53;;
483;SDS011;228;48.922;12.198;2022-10-16T05:35:20;4.53;;;3.70;;
483;SDS011;228;48.922;12.198;2022-10-16T05:37:47;5.80;;;4.00;;
483;SDS011;228;48.922;12.198;2022-10-16T05:40:13;4.13;;;3.63;;
483;SDS011;228;48.922;12.198;2022-10-16T05:42:41;5.03;;;4.50;;
483;SDS011;228;48.922;12.198;2022-10-16T05:45:08;4.73;;;4.23;;
483;SDS011;228;48.922;12.198;2022-10-16T05:47:36;5.20;;;4.70;;
483;SDS011;228;48.922;12.198;2022-10-16T05:50:03;5.00;;;4.50;;
483;SDS011;228;48.922;12.198;2022-10-16T05:52:29;6.00;;;4.93;;
483;SDS011;228;48.922;12.198;2022-10-16T05:54:55;6.33;;;5.43;;
483;SDS011;228;48.922;12.198;2022-10-16T05:57:21;6.90;;;5.27;;
483;SDS011;228;48.922;12.198;2022-10-16T05:59:47;10.63;;;5.77;;
483;SDS011;228;48.922;12.198;2022-10-16T06:02:13;7.23;;;5.60;;
483;SDS011;228;48.922;12.198;2022-10-16T06:04:40;6.43;;;5.13;;
483;SDS011;228;48.922;12.198;2022-10-16T06:07:06;8.27;;;6.13;;
483;SDS011;228;48.922;12.198;2022-10-16T06:09:33;7.33;;;6.00;;
483;SDS011;228;48.922;12.198;2022-10-16T06:11:59;7.10;;;5.87;;
483;SDS011;228;48.922;12.198;2022-10-16T06:14:25;9.53;;;6.40;;
483;SDS011;228;48.922;12.198;2022-10-16T06:16:51;8.00;;;6.70;;
483;SDS011;228;48.922;12.198;2022-10-16T06:19:17;7.70;;;6.67;;
483;SDS011;228;48.922;12.198;2022-10-16T06:21:43;8.00;;;6.53;;
483;SDS011;228;48.922;12.198;2022-10-16T06:24:10;8.97;;;6.77;;
483;SDS011;228;48.922;12.198;2022-10-16T06:26:36;8.93;;;7.13;;
483;SDS011;228;48.922;12.198;2022-10-16T06:29:03;9.73;;;7.70;;
483;SDS011;228;48.922;12.198;2022-10-16T06:31:29;9.47;;;7.67;;
483;SDS011;228;48.922;12.198;2022-10-16T06:33:58;9.07;;;7.20;;
483;SDS011;228;48.922;12.198;2022-10-16T06:36:25;11.97;;;7.73;;
483;SDS011;228;48.922;12.198;2022-10-16T06:38:52;8.33;;;6.47;;
483;SDS011;228;48.922;12.198;2022-10-16T06:41:19;7.70;;;6.30;;
483;SDS011;228;48.922;12.198;2022-10-16T06:43:47;8.50;;;5.90;;
483;SDS011;228;48.922;12.198;2022-10-16T06:46:14;7.47;;;5.97;;
483;SDS011;228;48.922;12.198;2022-10-16T06:48:44;7.37;;;5.23;;
483;SDS011;228;48.922;12.198;2022-10-16T06:51:12;6.70;;;6.03;;
483;SDS011;228;48.922;12.198;2022-10-16T06:53:44;6.43;;;5.67;;
483;SDS011;228;48.922;12.198;2022-10-16T06:56:15;5.70;;;5.20;;
483;SDS011;228;48.922;12.198;2022-10-16T06:58:49;7.33;;;5.43;;
483;SDS011;228;48.922;12.198;2022-10-16T07:01:17;5.47;;;4.97;;
483;SDS011;228;48.922;12.198;2022-10-16T07:03:47;6.73;;;5.07;;
483;SDS011;228;48.922;12.198;2022-10-16T07:06:15;5.87;;;5.13;;
483;SDS011;228;48.922;12.198;2022-10-16T07:08:45;5.53;;;5.03;;
483;SDS011;228;48.922;12.198;2022-10-16T07:11:13;5.70;;;5.10;;
483;SDS011;228;48.922;12.198;2022-10-16T07:13:44;5.67;;;4.33;;
483;SDS011;228;48.922;12.198;2022-10-16T07:16:12;5.00;;;4.27;;
483;SDS011;228;48.922;12.198;2022-10-16T07:18:44;6.70;;;4.00;;
483;SDS011;228;48.922;12.198;2022-10-16T07:21:14;5.50;;;4.00;;
483;SDS011;228;48.922;12.198;2022-10-16T07:23:49;4.73;;;4.20;;
483;SDS011;228;48.922;12.198;2022-10-16T07:26:21;5.43;;;4.33;;
483;SDS011;228;48.922;12.198;2022-10-16T07:28:48;5.13;;;4.53;;
483;SDS011;228;48.922;12.198;2022-10-16T07:31:15;4.57;;;4.17;;
483;SDS011;228;48.922;12.198;2022-10-16T07:33:44;4.30;;;3.90;;
483;SDS011;228;48.922;12.198;2022-10-16T07:36:13;5.30;;;3.73;;
483;SDS011;228;48.922;12.198;2022-10-16T07:38:41;4.10;;;3.70;;
483;SDS011;228;48.922;12.198;2022-10-16T07:41:09;7.13;;;3.83;;
483;SDS011;228;48.922;12.198;2022-10-16T07:43:44;3.90;;;3.50;;
483;SDS011;228;48.922;12.198;2022-10-16T07:46:12;4.60;;;3.83;;
483;SDS011;228;48.922;12.198;2022-10-16T07:48:39;4.67;;;3.63;;
483;SDS011;228;48.922;12.198;2022-10-16T07:51:06;4.43;;;3.90;;
483;SDS011;228;48.922;12.198;2022-10-16T07:53:33;10.87;;;5.63;;
483;SDS011;228;48.922;12.198;2022-10-16T07:55:59;4.53;;;3.87;;
483;SDS011;228;48.922;12.198;2022-10-16T07:58:29;4.00;;;3.50;;
483;SDS011;228;48.922;12.198;2022-10-16T08:00:56;3.93;;;3.53;;
483;SDS011;228;48.922;12.198;2022-10-16T08:03:23;3.77;;;3.33;;
483;SDS011;228;48.922;12.198;2022-10-16T08:05:50;3.47;;;3.10;;
483;SDS011;228;48.922;12.198;2022-10-16T08:08:17;3.57;;;3.27;;
483;SDS011;228;48.922;12.198;2022-10-16T08:10:43;4.07;;;3.33;;
483;SDS011;228;48.922;12.198;2022-10-16T08:13:10;3.70;;;3.30;;
483;SDS011;228;48.922;12.198;2022-10-16T08:15:37;4.07;;;3.50;;
483;SDS011;228;48.922;12.198;2022-10-16T08:18:05;3.10;;;2.75;;
483;SDS011;228;48.922;12.198;2022-10-16T08:20:31;3.22;;;2.92;;
483;SDS011;228;48.922;12.198;2022-10-16T08:22:58;3.40;;;2.85;;
483;SDS011;228;48.922;12.198;2022-10-16T08:25:25;3.42;;;2.85;;
483;SDS011;228;48.922;12.198;2022-10-16T08:27:52;3.80;;;3.03;;
483;SDS011;228;48.922;12.198;2022-10-16T08:30:18;3.08;;;2.88;;
483;SDS011;228;48.922;12.198;2022-10-16T08:32:46;3.38;;;3.08;;
483;SDS011;228;48.922;12.198;2022-10-16T08:35:12;4.15;;;2.78;;
483;SDS011;228;48.922;12.198;2022-10-16T08:37:39;3.40;;;2.92;;
483;SDS011;228;48.922;12.198;2022-10-16T08:40:06;3.63;;;3.13;;
483;SDS011;228;48.922;12.198;2022-10-16T08:43:03;3.00;;;2.80;;
483;SDS011;228;48.922;12.198;2022-10-16T08:51:21;3.17;;;2.60;;
483;SDS011;228;48.922;12.198;2022-10-16T08:53:55;3.47;;;2.90;;
483;SDS011;228;48.922;12.198;2022-10-16T08:56:22;3.35;;;2.90;;
483;SDS011;228;48.922;12.198;2022-10-16T08:58:49;3.00;;;2.70;;
483;SDS011;228;48.922;12.198;2022-10-16T09:01:18;3.53;;;3.15;;
483;SDS011;228;48.922;12.198;2022-10-16T09:10:14;3.35;;;3.05;;
483;SDS011;228;48.922;12.198;2022-10-16T09:12:59;3.13;;;2.83;;
483;SDS011;228;48.922;12.198;2022-10-16T09:20:58;3.53;;;2.83;;
483;SDS011;228;48.922;12.198;2022-10-16T09:23:52;2.75;;;2.53;;
483;SDS011;228;48.922;12.198;2022-10-16T09:26:23;5.10;;;2.42;;
483;SDS011;228;48.922;12.198;2022-10-16T09:28:51;2.42;;;2.22;;
483;SDS011;228;48.922;12.198;2022-10-16T09:31:19;2.30;;;2.10;;
483;SDS011;228;48.922;12.198;2022-10-16T09:34:24;4.70;;;1.88;;
483;SDS011;228;48.922;12.198;2022-10-16T09:36:51;2.30;;;2.10;;
483;SDS011;228;48.922;12.198;2022-10-16T09:39:17;2.72;;;2.53;;
483;SDS011;228;48.922;12.198;2022-10-16T09:41:44;2.47;;;2.20;;
483;SDS011;228;48.922;12.198;2022-10-16T09:44:29;2.30;;;2.10;;
483;SDS011;228;48.922;12.198;2022-10-16T09:47:03;2.20;;;1.98;;
483;SDS011;228;48.922;12.198;2022-10-16T09:52:20;2.10;;;1.95;;
483;SDS011;228;48.922;12.198;2022-10-16T09:54:57;2.42;;;1.95;;
483;SDS011;228;48.922;12.198;2022-10-16T09:57:27;2.80;;;2.03;;
483;SDS011;228;48.922;12.198;2022-10-16T09:59:57;3.80;;;1.90;;
483;SDS011;228;48.922;12.198;2022-10-16T10:02:31;2.30;;;2.10;;
483;SDS011;228;48.922;12.198;2022-10-16T10:05:01;2.92;;;2.10;;
483;SDS011;228;48.922;12.198;2022-10-16T10:07:33;2.83;;;1.83;;
483;SDS011;228;48.922;12.198;2022-10-16T10:10:05;1.80;;;1.70;;
483;SDS011;228;48.922;12.198;2022-10-16T10:12:46;2.45;;;2.20;;
483;SDS011;228;48.922;12.198;2022-10-16T10:15:12;2.20;;;2.00;;
483;SDS011;228;48.922;12.198;2022-10-16T10:17:51;2.20;;;2.00;;
483;SDS011;228;48.922;12.198;2022-10-16T10:22:55;2.97;;;1.85;;
483;SDS011;228;48.922;12.198;2022-10-16T10:31:20;2.85;;;1.90;;
483;SDS011;228;48.922;12.198;2022-10-16T10:36:42;2.38;;;1.80;;
483;SDS011;228;48.922;12.198;2022-10-16T10:39:32;2.15;;;1.95;;
483;SDS011;228;48.922;12.198;2022-10-16T10:42:32;2.45;;;2.25;;
483;SDS011;228;48.922;12.198;2022-10-16T10:45:14;2.25;;;1.90;;
483;SDS011;228;48.922;12.198;2022-10-16T11:02:24;1.70;;;1.60;;
483;SDS011;228;48.922;12.198;2022-10-16T11:05:44;2.00;;;1.88;;
483;SDS011;228;48.922;12.198;2022-10-16T11:08:22;2.08;;;1.88;;
483;SDS011;228;48.922;12.198;2022-10-16T11:16:25;2.17;;;1.90;;
483;SDS011;228;48.922;12.198;2022-10-16T11:19:10;2.10;;;1.90;;
483;SDS011;228;48.922;12.198;2022-10-16T11:21:51;1.80;;;1.70;;
483;SDS011;228;48.922;12.198;2022-10-16T11:24:36;2.10;;;1.90;;
483;SDS011;228;48.922;12.198;2022-10-16T11:27:36;1.90;;;1.80;;
483;SDS011;228;48.922;12.198;2022-10-16T11:30:27;1.90;;;1.80;;
483;SDS011;228;48.922;12.198;2022-10-16T11:35:43;2.05;;;1.90;;
483;SDS011;228;48.922;12.198;2022-10-16T11:38:35;2.00;;;1.83;;
483;SDS011;228;48.922;12.198;2022-10-16T11:46:42;2.00;;;1.77;;
483;SDS011;228;48.922;12.198;2022-10-16T11:49:57;2.10;;;2.00;;
483;SDS011;228;48.922;12.198;2022-10-16T11:56:21;1.80;;;1.70;;
483;SDS011;228;48.922;12.198;2022-10-16T11:58:56;2.00;;;1.90;;
483;SDS011;228;48.922;12.198;2022-10-16T12:04:43;1.90;;;1.80;;
483;SDS011;228;48.922;12.198;2022-10-16T12:07:40;1.80;;;1.70;;
483;SDS011;228;48.922;12.198;2022-10-16T12:10:23;2.45;;;2.25;;
483;SDS011;228;48.922;12.198;2022-10-16T12:12:52;1.98;;;1.88;;
483;SDS011;228;48.922;12.198;2022-10-16T12:15:29;2.05;;;1.85;;
483;SDS011;228;48.922;12.198;2022-10-16T12:17:58;1.98;;;1.85;;
483;SDS011;228;48.922;12.198;2022-10-16T12:22:58;2.13;;;1.92;;
483;SDS011;228;48.922;12.198;2022-10-16T12:30:40;1.90;;;1.80;;
483;SDS011;228;48.922;12.198;2022-10-16T12:35:56;2.08;;;1.88;;
483;SDS011;228;48.922;12.198;2022-10-16T12:38:30;1.90;;;1.80;;
483;SDS011;228;48.922;12.198;2022-10-16T12:41:12;2.33;;;2.13;;
483;SDS011;228;48.922;12.198;2022-10-16T12:44:01;2.15;;;2.00;;
483;SDS011;228;48.922;12.198;2022-10-16T12:49:04;2.00;;;1.90;;
483;SDS011;228;48.922;12.198;2022-10-16T12:51:53;2.03;;;1.90;;
483;SDS011;228;48.922;12.198;2022-10-16T12:54:23;2.00;;;1.90;;
483;SDS011;228;48.922;12.198;2022-10-16T13:00:02;3.78;;;1.95;;
483;SDS011;228;48.922;12.198;2022-10-16T13:17:20;1.83;;;1.73;;
483;SDS011;228;48.922;12.198;2022-10-16T13:28:41;1.80;;;1.70;;
483;SDS011;228;48.922;12.198;2022-10-16T13:31:15;2.20;;;2.00;;
483;SDS011;228;48.922;12.198;2022-10-16T13:33:50;1.80;;;1.70;;
483;SDS011;228;48.922;12.198;2022-10-16T13:36:24;1.90;;;1.80;;
483;SDS011;228;48.922;12.198;2022-10-16T13:42:00;2.10;;;1.90;;
483;SDS011;228;48.922;12.198;2022-10-16T13:44:28;2.83;;;1.90;;
483;SDS011;228;48.922;12.198;2022-10-16T13:47:02;1.85;;;1.75;;
483;SDS011;228;48.922;12.198;2022-10-16T13:49:28;1.75;;;1.63;;
483;SDS011;228;48.922;12.198;2022-10-16T13:51:55;2.20;;;2.00;;
483;SDS011;228;48.922;12.198;2022-10-16T13:54:24;2.25;;;2.10;;
483;SDS011;228;48.922;12.198;2022-10-16T13:56:52;2.00;;;1.90;;
483;SDS011;228;48.922;12.198;2022-10-16T13:59:23;1.90;;;1.80;;
483;SDS011;228;48.922;12.198;2022-10-16T14:02:37;2.40;;;2.20;;
483;SDS011;228;48.922;12.198;2022-10-16T14:05:01;2.10;;;1.90;;
483;SDS011;228;48.922;12.198;2022-10-16T14:07:30;2.75;;;2.13;;
483;SDS011;228;48.922;12.198;2022-10-16T14:10:18;2.22;;;2.13;;
483;SDS011;228;48.922;12.198;2022-10-16T14:12:55;2.13;;;1.92;;
483;SDS011;228;48.922;12.198;2022-10-16T14:15:27;2.00;;;1.90;;
483;SDS011;228;48.922;12.198;2022-10-16T14:17:55;2.20;;;2.10;;
483;SDS011;228;48.922;12.198;2022-10-16T14:20:24;2.15;;;2.05;;
483;SDS011;228;48.922;12.198;2022-10-16T14:22:58;2.90;;;2.60;;
483;SDS011;228;48.922;12.198;2022-10-16T14:25:29;2.30;;;2.10;;
483;SDS011;228;48.922;12.198;2022-10-16T14:30:29;2.70;;;2.50;;
483;SDS011;228;48.922;12.198;2022-10-16T14:32:59;2.40;;;2.20;;
483;SDS011;228;48.922;12.198;2022-10-16T14:35:29;2.40;;;2.20;;
483;SDS011;228;48.922;12.198;2022-10-16T14:38:05;2.55;;;2.35;;
483;SDS011;228;48.922;12.198;2022-10-16T14:40:45;2.17;;;2.08;;
483;SDS011;228;48.922;12.198;2022-10-16T14:43:20;2.50;;;2.30;;
483;SDS011;228;48.922;12.198;2022-10-16T14:45:59;2.38;;;2.17;;
483;SDS011;228;48.922;12.198;2022-10-16T14:48:27;2.25;;;2.15;;
483;SDS011;228;48.922;12.198;2022-10-16T14:50:53;2.90;;;2.60;;
483;SDS011;228;48.922;12.198;2022-10-16T14:53:20;2.42;;;2.22;;
483;SDS011;228;48.922;12.198;2022-10-16T14:55:46;2.50;;;2.30;;
483;SDS011;228;48.922;12.198;2022-10-16T14:58:22;3.28;;;2.67;;
483;SDS011;228;48.922;12.198;2022-10-16T15:00:50;2.60;;;2.40;;
483;SDS011;228;48.922;12.198;2022-10-16T15:03:16;2.60;;;2.40;;
483;SDS011;228;48.922;12.198;2022-10-16T15:05:42;3.85;;;2.80;;
483;SDS011;228;48.922;12.198;2022-10-16T15:08:08;4.78;;;2.35;;
483;SDS011;228;48.922;12.198;2022-10-16T15:10:39;3.03;;;2.67;;
483;SDS011;228;48.922;12.198;2022-10-16T15:13:08;3.20;;;2.90;;
483;SDS011;228;48.922;12.198;2022-10-16T15:15:45;3.65;;;2.97;;
483;SDS011;228;48.922;12.198;2022-10-16T15:18:14;3.20;;;2.88;;
483;SDS011;228;48.922;12.198;2022-10-16T15:20:45;3.05;;;2.80;;
483;SDS011;228;48.922;12.198;2022-10-16T15:23:15;3.40;;;3.10;;
483;SDS011;228;48.922;12.198;2022-10-16T15:25:45;4.22;;;2.70;;
483;SDS011;228;48.922;12.198;2022-10-16T15:28:21;3.08;;;2.78;;
483;SDS011;228;48.922;12.198;2022-10-16T15:30:53;3.85;;;3.15;;
483;SDS011;228;48.922;12.198;2022-10-16T15:33:25;3.20;;;2.90;;
483;SDS011;228;48.922;12.198;2022-10-16T15:35:55;5.55;;;3.42;;
483;SDS011;228;48.922;12.198;2022-10-16T15:38:21;3.25;;;2.95;;
483;SDS011;228;48.922;12.198;2022-10-16T15:40:52;4.60;;;3.20;;
483;SDS011;228;48.922;12.198;2022-10-16T15:43:18;3.95;;;3.10;;
483;SDS011;228;48.922;12.198;2022-10-16T15:45:46;3.20;;;2.90;;
483;SDS011;228;48.922;12.198;2022-10-16T15:48:27;3.13;;;2.83;;
483;SDS011;228;48.922;12.198;2022-10-16T15:50:54;3.50;;;3.20;;
483;SDS011;228;48.922;12.198;2022-10-16T15:53:26;4.07;;;3.42;;
483;SDS011;228;48.922;12.198;2022-10-16T15:55:52;4.13;;;3.72;;
483;SDS011;228;48.922;12.198;2022-10-16T15:58:18;4.35;;;3.80;;
483;SDS011;228;48.922;12.198;2022-10-16T16:00:45;7.00;;;5.07;;
483;SDS011;228;48.922;12.198;2022-10-16T16:03:19;5.53;;;4.55;;
483;SDS011;228;48.922;12.198;2022-10-16T16:05:45;4.97;;;4.13;;
483;SDS011;228;48.922;12.198;2022-10-16T16:08:12;6.47;;;4.65;;
483;SDS011;228;48.922;12.198;2022-10-16T16:10:38;4.40;;;4.00;;
483;SDS011;228;48.922;12.198;2022-10-16T16:13:04;4.55;;;3.88;;
483;SDS011;228;48.922;12.198;2022-10-16T16:15:30;4.32;;;3.92;;
483;SDS011;228;48.922;12.198;2022-10-16T16:17:56;4.70;;;4.25;;
483;SDS011;228;48.922;12.198;2022-10-16T16:20:22;5.30;;;4.07;;
483;SDS011;228;48.922;12.198;2022-10-16T16:22:48;4.68;;;4.15;;
483;SDS011;228;48.922;12.198;2022-10-16T16:25:14;5.32;;;4.57;;
483;SDS011;228;48.922;12.198;2022-10-16T16:27:40;6.22;;;4.97;;
483;SDS011;228;48.922;12.198;2022-10-16T16:30:06;5.75;;;4.65;;
483;SDS011;228;48.922;12.198;2022-10-16T16:32:35;5.60;;;4.63;;
483;SDS011;228;48.922;12.198;2022-10-16T16:35:02;5.40;;;4.90;;
483;SDS011;228;48.922;12.198;2022-10-16T16:37:30;5.70;;;4.95;;
483;SDS011;228;48.922;12.198;2022-10-16T16:39:56;6.50;;;5.53;;
483;SDS011;228;48.922;12.198;2022-10-16T16:42:26;5.93;;;4.90;;
483;SDS011;228;48.922;12.198;2022-10-16T16:44:53;7.22;;;5.30;;
483;SDS011;228;48.922;12.198;2022-10-16T16:47:19;6.40;;;5.22;;
483;SDS011;228;48.922;12.198;2022-10-16T16:49:45;7.82;;;5.10;;
483;SDS011;228;48.922;12.198;2022-10-16T16:52:12;6.25;;;5.53;;
483;SDS011;228;48.922;12.198;2022-10-16T16:54:39;6.68;;;5.20;;
483;SDS011;228;48.922;12.198;2022-10-16T16:57:05;5.80;;;4.93;;
483;SDS011;228;48.922;12.198;2022-10-16T16:59:31;6.28;;;5.40;;
483;SDS011;228;48.922;12.198;2022-10-16T17:01:59;6.53;;;5.00;;
483;SDS011;228;48.922;12.198;2022-10-16T17:04:26;6.63;;;4.95;;
483;SDS011;228;48.922;12.198;2022-10-16T17:06:53;6.95;;;4.68;;
483;SDS011;228;48.922;12.198;2022-10-16T17:09:20;5.88;;;4.63;;
483;SDS011;228;48.922;12.198;2022-10-16T17:11:46;7.80;;;5.78;;
483;SDS011;228;48.922;12.198;2022-10-16T17:14:13;5.95;;;4.85;;
483;SDS011;228;48.922;12.198;2022-10-16T17:16:40;5.78;;;4.95;;
483;SDS011;228;48.922;12.198;2022-10-16T17:19:11;7.05;;;4.97;;
483;SDS011;228;48.922;12.198;2022-10-16T17:21:41;8.57;;;4.97;;
483;SDS011;228;48.922;12.198;2022-10-16T17:24:08;8.27;;;5.68;;
483;SDS011;228;48.922;12.198;2022-10-16T17:26:35;9.82;;;6.40;;
483;SDS011;228;48.922;12.198;2022-10-16T17:29:06;11.05;;;6.75;;
483;SDS011;228;48.922;12.198;2022-10-16T17:31:33;7.63;;;5.68;;
483;SDS011;228;48.922;12.198;2022-10-16T17:34:02;8.57;;;6.55;;
483;SDS011;228;48.922;12.198;2022-10-16T17:36:31;9.18;;;6.50;;
483;SDS011;228;48.922;12.198;2022-10-16T17:39:04;8.52;;;5.60;;
483;SDS011;228;48.922;12.198;2022-10-16T17:41:33;8.95;;;6.38;;
483;SDS011;228;48.922;12.198;2022-10-16T17:44:01;8.18;;;6.03;;
483;SDS011;228;48.922;12.198;2022-10-16T17:46:28;8.75;;;6.00;;
483;SDS011;228;48.922;12.198;2022-10-16T17:48:55;11.45;;;7.15;;
483;SDS011;228;48.922;12.198;2022-10-16T17:51:25;10.10;;;7.38;;
483;SDS011;228;48.922;12.198;2022-10-16T17:53:56;12.85;;;8.30;;
483;SDS011;228;48.922;12.198;2022-10-16T17:56:24;11.32;;;8.63;;
483;SDS011;228;48.922;12.198;2022-10-16T17:58:52;10.75;;;7.20;;